Observation data for Aspermont on 08/14/2020      Previous  Date  Next       Current Mesonet Observations  Soil Data  Daily Summary Page  Observations in Plain Language
KASR 140500Z 19008KT 31/12 A2986 RMK A01 T03140120  RH  031%=      5-min Rain = 0
KASR 140505Z 19009KT 31/12 A2987 RMK A01 T03140121  RH  031%=      5-min Rain = 0
KASR 140510Z 18009KT 31/12 A2987 RMK A01 T03120121  RH  031%=      5-min Rain = 0
KASR 140515Z 18009KT 31/12 A2987 RMK A01 T03120121  RH  032%=      5-min Rain = 0
KASR 140520Z 18008KT 31/12 A2987 RMK A01 T03110122  RH  032%=      5-min Rain = 0
KASR 140525Z 18009KT 31/12 A2987 RMK A01 T03110122  RH  032%=      5-min Rain = 0
KASR 140530Z 18008KT 31/12 A2987 RMK A01 T03110122  RH  032%=      5-min Rain = 0
KASR 140535Z 17009KT 31/12 A2987 RMK A01 T03120122  RH  032%=      5-min Rain = 0
KASR 140540Z 17009KT 31/12 A2987 RMK A01 T03130123  RH  032%=      5-min Rain = 0
KASR 140545Z 18009KT 31/12 A2987 RMK A01 T03120123  RH  032%=      5-min Rain = 0
KASR 140550Z 18008KT 31/12 A2987 RMK A01 T03090124  RH  033%=      5-min Rain = 0
KASR 140555Z 17008KT 31/12 A2987 RMK A01 T03080124  RH  033%=      5-min Rain = 0
KASR 140600Z 18008KT 31/12 A2987 RMK A01 T03070124  RH  033%=      5-min Rain = 0
KASR 140605Z 18008KT 31/13 A2987 RMK A01 T03060125  RH  034%=      5-min Rain = 0
KASR 140610Z 19008KT 30/13 A2987 RMK A01 T03040125  RH  034%=      5-min Rain = 0
KASR 140615Z 19007KT 30/13 A2987 RMK A01 T03020126  RH  035%=      5-min Rain = 0
KASR 140620Z 18006KT 30/13 A2987 RMK A01 T02990127  RH  035%=      5-min Rain = 0
KASR 140625Z 19006KT 30/13 A2988 RMK A01 T02950127  RH  036%=      5-min Rain = 0
KASR 140630Z 19006KT 29/13 A2988 RMK A01 T02920127  RH  037%=      5-min Rain = 0
KASR 140635Z 19006KT 29/13 A2988 RMK A01 T02890128  RH  038%=      5-min Rain = 0
KASR 140640Z 19006KT 29/13 A2988 RMK A01 T02880128  RH  038%=      5-min Rain = 0
KASR 140645Z 19006KT 29/13 A2988 RMK A01 T02860128  RH  039%=      5-min Rain = 0
KASR 140650Z 20005KT 29/13 A2988 RMK A01 T02860128  RH  039%=      5-min Rain = 0
KASR 140655Z 19006KT 29/13 A2988 RMK A01 T02850128  RH  039%=      5-min Rain = 0
KASR 140700Z 18007KT 29/13 A2988 RMK A01 T02850129  RH  039%=      5-min Rain = 0
KASR 140705Z 19006KT 28/13 A2988 RMK A01 T02840129  RH  039%=      5-min Rain = 0
KASR 140710Z 20005KT 28/13 A2988 RMK A01 T02810129  RH  040%=      5-min Rain = 0
KASR 140715Z 19005KT 28/13 A2988 RMK A01 T02790129  RH  040%=      5-min Rain = 0
KASR 140720Z 18006KT 28/13 A2988 RMK A01 T02780128  RH  040%=      5-min Rain = 0
KASR 140725Z 19006KT 28/13 A2988 RMK A01 T02800128  RH  040%=      5-min Rain = 0
KASR 140730Z 20006KT 28/13 A2988 RMK A01 T02800129  RH  040%=      5-min Rain = 0
KASR 140735Z 20006KT 28/13 A2988 RMK A01 T02750129  RH  041%=      5-min Rain = 0
KASR 140740Z 20006KT 27/13 A2988 RMK A01 T02730129  RH  042%=      5-min Rain = 0
KASR 140745Z 21006KT 28/13 A2988 RMK A01 T02760130  RH  041%=      5-min Rain = 0
KASR 140750Z 20006KT 28/13 A2988 RMK A01 T02790130  RH  041%=      5-min Rain = 0
KASR 140755Z 20006KT 28/13 A2987 RMK A01 T02770130  RH  041%=      5-min Rain = 0
KASR 140800Z 21007KT 28/13 A2987 RMK A01 T02790130  RH  041%=      5-min Rain = 0
KASR 140805Z 21007KT 29/13 A2987 RMK A01 T02850130  RH  039%=      5-min Rain = 0
KASR 140810Z 21007KT 29/13 A2987 RMK A01 T02880131  RH  039%=      5-min Rain = 0
KASR 140815Z 21007KT 29/13 A2987 RMK A01 T02910132  RH  038%=      5-min Rain = 0
KASR 140820Z 22007KT 30/13 A2988 RMK A01 T02950133  RH  038%=      5-min Rain = 0
KASR 140825Z 22007KT 30/13 A2988 RMK A01 T02960133  RH  038%=      5-min Rain = 0
KASR 140830Z 22006KT 30/13 A2988 RMK A01 T02960134  RH  038%=      5-min Rain = 0
KASR 140835Z 21005KT 29/14 A2988 RMK A01 T02940135  RH  038%=      5-min Rain = 0
KASR 140840Z 21005KT 29/14 A2988 RMK A01 T02930136  RH  039%=      5-min Rain = 0
KASR 140845Z 21005KT 29/14 A2988 RMK A01 T02900136  RH  040%=      5-min Rain = 0
KASR 140850Z 21004KT 29/14 A2988 RMK A01 T02860137  RH  041%=      5-min Rain = 0
KASR 140855Z 21005KT 29/14 A2988 RMK A01 T02850137  RH  041%=      5-min Rain = 0
KASR 140900Z 20006KT 29/14 A2988 RMK A01 T02850138  RH  041%=      5-min Rain = 0
KASR 140905Z 20006KT 28/14 A2988 RMK A01 T02840138  RH  042%=      5-min Rain = 0
KASR 140910Z 20006KT 29/14 A2988 RMK A01 T02860138  RH  041%=      5-min Rain = 0
KASR 140915Z 20007KT 28/14 A2988 RMK A01 T02830138  RH  042%=      5-min Rain = 0
KASR 140920Z 20007KT 29/14 A2988 RMK A01 T02850138  RH  041%=      5-min Rain = 0
KASR 140925Z 21008KT 29/14 A2988 RMK A01 T02900139  RH  040%=      5-min Rain = 0
KASR 140930Z 21008KT 29/14 A2988 RMK A01 T02940139  RH  040%=      5-min Rain = 0
KASR 140935Z 21008KT 29/14 A2987 RMK A01 T02940140  RH  040%=      5-min Rain = 0
KASR 140940Z 21008KT 30/14 A2987 RMK A01 T02950141  RH  040%=      5-min Rain = 0
KASR 140945Z 22009KT 30/14 A2987 RMK A01 T02970141  RH  039%=      5-min Rain = 0
KASR 140950Z 22009KT 30/14 A2987 RMK A01 T03000142  RH  039%=      5-min Rain = 0
KASR 140955Z 22009KT 30/14 A2987 RMK A01 T03000142  RH  039%=      5-min Rain = 0
KASR 141000Z 22007KT 30/14 A2987 RMK A01 T03000143  RH  039%=      5-min Rain = 0
KASR 141005Z 22007KT 30/14 A2987 RMK A01 T02980143  RH  040%=      5-min Rain = 0
KASR 141010Z 22007KT 30/14 A2987 RMK A01 T02970143  RH  040%=      5-min Rain = 0
KASR 141015Z 23007KT 30/14 A2987 RMK A01 T02960143  RH  040%=      5-min Rain = 0
KASR 141020Z 23006KT 29/14 A2987 RMK A01 T02930143  RH  041%=      5-min Rain = 0
KASR 141025Z 23006KT 29/14 A2988 RMK A01 T02900143  RH  041%=      5-min Rain = 0
KASR 141030Z 22005KT 29/14 A2988 RMK A01 T02870143  RH  042%=      5-min Rain = 0
KASR 141035Z 22006KT 29/14 A2988 RMK A01 T02850143  RH  043%=      5-min Rain = 0
KASR 141040Z 22006KT 28/14 A2988 RMK A01 T02840143  RH  043%=      5-min Rain = 0
KASR 141045Z 22005KT 28/14 A2988 RMK A01 T02830143  RH  043%=      5-min Rain = 0
KASR 141050Z 23005KT 28/14 A2988 RMK A01 T02830143  RH  043%=      5-min Rain = 0
KASR 141055Z 23005KT 28/14 A2988 RMK A01 T02820142  RH  043%=      5-min Rain = 0
KASR 141100Z 22006KT 28/14 A2988 RMK A01 T02800143  RH  044%=      5-min Rain = 0
KASR 141105Z 22005KT 28/14 A2988 RMK A01 T02790144  RH  044%=      5-min Rain = 0
KASR 141110Z 23005KT 28/14 A2988 RMK A01 T02790144  RH  045%=      5-min Rain = 0
KASR 141115Z 22006KT 28/14 A2988 RMK A01 T02780144  RH  045%=      5-min Rain = 0
KASR 141120Z 22007KT 28/14 A2988 RMK A01 T02790144  RH  045%=      5-min Rain = 0
KASR 141125Z 22007KT 28/14 A2988 RMK A01 T02800144  RH  044%=      5-min Rain = 0
KASR 141130Z 22007KT 28/15 A2988 RMK A01 T02830145  RH  044%=      5-min Rain = 0
KASR 141135Z 21007KT 28/15 A2989 RMK A01 T02840145  RH  043%=      5-min Rain = 0
KASR 141140Z 21006KT 29/15 A2989 RMK A01 T02860145  RH  043%=      5-min Rain = 0
KASR 141145Z 22007KT 29/15 A299 RMK A01 T02860145  RH  043%=      5-min Rain = 0
KASR 141150Z 23007KT 29/15 A299 RMK A01 T02870145  RH  043%=      5-min Rain = 0
KASR 141155Z 23007KT 29/14 A299 RMK A01 T02860144  RH  043%=      5-min Rain = 0
KASR 141200Z 23006KT 29/14 A299 RMK A01 T02860144  RH  043%=      5-min Rain = 0
KASR 141205Z 24006KT 28/14 A2991 RMK A01 T02830144  RH  043%=      5-min Rain = 0
KASR 141210Z 23006KT 28/14 A2991 RMK A01 T02800144  RH  044%=      5-min Rain = 0
KASR 141215Z 23006KT 28/14 A2991 RMK A01 T02790144  RH  045%=      5-min Rain = 0
KASR 141220Z 23005KT 28/14 A2991 RMK A01 T02780144  RH  045%=      5-min Rain = 0
KASR 141225Z 23005KT 28/14 A2991 RMK A01 T02750144  RH  046%=      5-min Rain = 0
KASR 141230Z 21004KT 27/15 A2991 RMK A01 T02730146  RH  047%=      5-min Rain = 0
KASR 141235Z 22004KT 27/15 A2991 RMK A01 T02720148  RH  048%=      5-min Rain = 0
KASR 141240Z 22004KT 27/15 A2991 RMK A01 T02710149  RH  048%=      5-min Rain = 0
KASR 141245Z 23004KT 27/15 A2992 RMK A01 T02720150  RH  048%=      5-min Rain = 0
KASR 141250Z 22004KT 27/15 A2992 RMK A01 T02740150  RH  048%=      5-min Rain = 0
KASR 141255Z 22003KT 28/15 A2992 RMK A01 T02780152  RH  047%=      5-min Rain = 0
KASR 141300Z 21003KT 28/15 A2992 RMK A01 T02800154  RH  047%=      5-min Rain = 0
KASR 141305Z 20003KT 28/16 A2992 RMK A01 T02830160  RH  048%=      5-min Rain = 0
KASR 141310Z 20002KT 29/16 A2993 RMK A01 T02870161  RH  048%=      5-min Rain = 0
KASR 141315Z 21002KT 29/16 A2993 RMK A01 T02900157  RH  045%=      5-min Rain = 0
KASR 141320Z 21003KT 29/15 A2993 RMK A01 T02930154  RH  044%=      5-min Rain = 0
KASR 141325Z 20003KT 30/16 A2993 RMK A01 T02960158  RH  044%=      5-min Rain = 0
KASR 141330Z 20003KT 30/16 A2993 RMK A01 T02990155  RH  043%=      5-min Rain = 0
KASR 141335Z 21002KT 30/16 A2993 RMK A01 T03020158  RH  043%=      5-min Rain = 0
KASR 141340Z 23004KT 31/16 A2993 RMK A01 T03050156  RH  041%=      5-min Rain = 0
KASR 141345Z 23004KT 31/16 A2993 RMK A01 T03070156  RH  041%=      5-min Rain = 0
KASR 141350Z 23005KT 31/16 A2994 RMK A01 T03110155  RH  040%=      5-min Rain = 0
KASR 141355Z 23007KT 31/15 A2994 RMK A01 T03120153  RH  039%=      5-min Rain = 0
KASR 141400Z 24011KT 31/15 A2994 RMK A01 T03140150  RH  038%=      5-min Rain = 0
KASR 141405Z 24009KT 32/15 A2994 RMK A01 T03180151  RH  037%=      5-min Rain = 0
KASR 141410Z 23010KT 32/15 A2994 RMK A01 T03200151  RH  037%=      5-min Rain = 0
KASR 141415Z 23010KT 32/15 A2994 RMK A01 T03210151  RH  037%=      5-min Rain = 0
KASR 141420Z 24010KT 32/15 A2994 RMK A01 T03240151  RH  036%=      5-min Rain = 0
KASR 141425Z 22011KT 33/15 A2994 RMK A01 T03260151  RH  036%=      5-min Rain = 0
KASR 141430Z 23012KT 33/15 A2994 RMK A01 T03270150  RH  035%=      5-min Rain = 0
KASR 141435Z 24012KT 33/15 A2994 RMK A01 T03280150  RH  035%=      5-min Rain = 0
KASR 141440Z 23011KT 33/15 A2994 RMK A01 T03310152  RH  035%=      5-min Rain = 0
KASR 141445Z 23013G18KT 33/15 A2993 RMK A01 T03320151  RH  034%=      5-min Rain = 0
KASR 141450Z 23013KT 33/15 A2994 RMK A01 T03340151  RH  034%=      5-min Rain = 0
KASR 141455Z 23014G22KT 33/15 A2993 RMK A01 T03340151  RH  034%=      5-min Rain = 0
KASR 141500Z 23014G20KT 34/15 A2993 RMK A01 T03350151  RH  034%=      5-min Rain = 0
KASR 141505Z 23011KT 34/15 A2993 RMK A01 T03400153  RH  033%=      5-min Rain = 0
KASR 141510Z 22009KT 35/15 A2993 RMK A01 T03450154  RH  033%=      5-min Rain = 0
KASR 141515Z 23010KT 35/16 A2993 RMK A01 T03480155  RH  032%=      5-min Rain = 0
KASR 141520Z 23012G17KT 35/15 A2993 RMK A01 T03460152  RH  032%=      5-min Rain = 0
KASR 141525Z 23011G16KT 35/15 A2993 RMK A01 T03500154  RH  032%=      5-min Rain = 0
KASR 141530Z 25012KT 35/15 A2993 RMK A01 T03500152  RH  031%=      5-min Rain = 0
KASR 141535Z 23012KT 35/15 A2993 RMK A01 T03520152  RH  031%=      5-min Rain = 0
KASR 141540Z 23011G17KT 35/15 A2993 RMK A01 T03520152  RH  031%=      5-min Rain = 0
KASR 141545Z 22012KT 36/15 A2993 RMK A01 T03570153  RH  030%=      5-min Rain = 0
KASR 141550Z 22012KT 36/15 A2993 RMK A01 T03580153  RH  030%=      5-min Rain = 0
KASR 141555Z 23012G17KT 36/15 A2993 RMK A01 T03590154  RH  030%=      5-min Rain = 0
KASR 141600Z 22012G17KT 36/15 A2993 RMK A01 T03610153  RH  030%=      5-min Rain = 0
KASR 141605Z 22013KT 36/15 A2993 RMK A01 T03620153  RH  030%=      5-min Rain = 0
KASR 141610Z 21013KT 37/15 A2993 RMK A01 T03650153  RH  029%=      5-min Rain = 0
KASR 141615Z 22011KT 37/15 A2993 RMK A01 T03680154  RH  029%=      5-min Rain = 0
KASR 141620Z 24012G18KT 37/15 A2993 RMK A01 T03690152  RH  028%=      5-min Rain = 0
KASR 141625Z 23011G16KT 37/15 A2992 RMK A01 T03690152  RH  028%=      5-min Rain = 0
KASR 141630Z 23014KT 37/15 A2992 RMK A01 T03720151  RH  028%=      5-min Rain = 0
KASR 141635Z 22012G18KT 37/15 A2992 RMK A01 T03700152  RH  028%=      5-min Rain = 0
KASR 141640Z 22011G18KT 38/15 A2992 RMK A01 T03750152  RH  027%=      5-min Rain = 0
KASR 141645Z 21012G17KT 38/15 A2992 RMK A01 T03790153  RH  027%=      5-min Rain = 0
KASR 141650Z 20012KT 38/15 A2992 RMK A01 T03810152  RH  027%=      5-min Rain = 0
KASR 141655Z 21012G18KT 38/15 A2992 RMK A01 T03840152  RH  026%=      5-min Rain = 0
KASR 141700Z 23010KT 38/15 A2992 RMK A01 T03820149  RH  026%=      5-min Rain = 0
KASR 141705Z 22012KT 39/15 A2992 RMK A01 T03850150  RH  026%=      5-min Rain = 0
KASR 141710Z 22012KT 39/15 A2991 RMK A01 T03860148  RH  025%=      5-min Rain = 0
KASR 141715Z 22010G16KT 39/15 A2991 RMK A01 T03880149  RH  025%=      5-min Rain = 0
KASR 141720Z 22010KT 39/15 A2991 RMK A01 T03880149  RH  025%=      5-min Rain = 0
KASR 141725Z 21013G19KT 39/15 A2991 RMK A01 T03930146  RH  024%=      5-min Rain = 0
KASR 141730Z 22011KT 40/14 A2991 RMK A01 T03970142  RH  023%=      5-min Rain = 0
KASR 141735Z 23012G17KT 40/14 A2991 RMK A01 T03980139  RH  022%=      5-min Rain = 0
KASR 141740Z 21010KT 40/14 A2991 RMK A01 T03980142  RH  023%=      5-min Rain = 0
KASR 141745Z 20013KT 40/14 A2991 RMK A01 T04010140  RH  022%=      5-min Rain = 0
KASR 141750Z 21011KT 40/14 A299 RMK A01 T03980138  RH  022%=      5-min Rain = 0
KASR 141755Z 23009G16KT 40/13 A299 RMK A01 T04010134  RH  021%=      5-min Rain = 0
KASR 141800Z 22009G14KT 40/14 A299 RMK A01 T04030140  RH  022%=      5-min Rain = 0
KASR 141805Z 22010G16KT 41/14 A299 RMK A01 T04080135  RH  020%=      5-min Rain = 0
KASR 141810Z 23011G16KT 41/13 A299 RMK A01 T04100133  RH  020%=      5-min Rain = 0
KASR 141815Z 21010G17KT 41/13 A299 RMK A01 T04100131  RH  020%=      5-min Rain = 0
KASR 141820Z 23007KT 41/13 A2989 RMK A01 T04070132  RH  020%=      5-min Rain = 0
KASR 141825Z 23011G16KT 41/13 A2989 RMK A01 T04120131  RH  019%=      5-min Rain = 0
KASR 141830Z 22008G14KT 41/13 A2989 RMK A01 T04120129  RH  019%=      5-min Rain = 0
KASR 141835Z 23010KT 42/12 A2989 RMK A01 T04180124  RH  018%=      5-min Rain = 0
KASR 141840Z 23007KT 41/13 A2989 RMK A01 T04140128  RH  019%=      5-min Rain = 0
KASR 141845Z 21007G14KT 42/13 A2988 RMK A01 T04200127  RH  018%=      5-min Rain = 0
KASR 141850Z 22010G18KT 42/12 A2988 RMK A01 T04230123  RH  017%=      5-min Rain = 0
KASR 141855Z 23006G11KT 42/11 A2988 RMK A01 T04230114  RH  017%=      5-min Rain = 0
KASR 141900Z 24006G15KT 42/12 A2988 RMK A01 T04210120  RH  017%=      5-min Rain = 0
KASR 141905Z 22010G16KT 43/12 A2987 RMK A01 T04270119  RH  017%=      5-min Rain = 0
KASR 141910Z 22008KT 43/12 A2987 RMK A01 T04290119  RH  017%=      5-min Rain = 0
KASR 141915Z 22009G17KT 43/12 A2987 RMK A01 T04280117  RH  016%=      5-min Rain = 0
KASR 141920Z 22007G18KT 43/11 A2987 RMK A01 T04260114  RH  016%=      5-min Rain = 0
KASR 141925Z 25013KT 43/11 A2987 RMK A01 T04280105  RH  015%=      5-min Rain = 0
KASR 141930Z 25010G17KT 43/10 A2987 RMK A01 T04290103  RH  015%=      5-min Rain = 0
KASR 141935Z 22007KT 43/10 A2987 RMK A01 T04290100  RH  015%=      5-min Rain = 0
KASR 141940Z 21006G11KT 43/10 A2987 RMK A01 T04290099  RH  014%=      5-min Rain = 0
KASR 141945Z 25010KT 43/10 A2986 RMK A01 T04300101  RH  015%=      5-min Rain = 0
KASR 141950Z 27008G13KT 43/10 A2986 RMK A01 T04290097  RH  014%=      5-min Rain = 0
KASR 141955Z 28005KT 43/10 A2986 RMK A01 T04270097  RH  014%=      5-min Rain = 0
KASR 142000Z 24006G12KT 43/10 A2986 RMK A01 T04280099  RH  015%=      5-min Rain = 0
KASR 142005Z 23008G13KT 43/10 A2986 RMK A01 T04300102  RH  015%=      5-min Rain = 0
KASR 142010Z 23008KT 43/10 A2985 RMK A01 T04320103  RH  015%=      5-min Rain = 0
KASR 142015Z 22010G15KT 43/11 A2985 RMK A01 T04340105  RH  015%=      5-min Rain = 0
KASR 142020Z 22006G11KT 43/10 A2985 RMK A01 T04300104  RH  015%=      5-min Rain = 0
KASR 142025Z 27005G11KT 43/11 A2984 RMK A01 T04310107  RH  015%=      5-min Rain = 0
KASR 142030Z 21006KT 44/11 A2984 RMK A01 T04360110  RH  015%=      5-min Rain = 0
KASR 142035Z 21003G10KT 44/11 A2983 RMK A01 T04350108  RH  015%=      5-min Rain = 0
KASR 142040Z 19005G10KT 43/11 A2983 RMK A01 T04330106  RH  015%=      5-min Rain = 0
KASR 142045Z 23008KT 44/11 A2983 RMK A01 T04370106  RH  015%=      5-min Rain = 0
KASR 142050Z 26008KT 43/10 A2982 RMK A01 T04330103  RH  014%=      5-min Rain = 0
KASR 142055Z 29005KT 43/10 A2982 RMK A01 T04320102  RH  015%=      5-min Rain = 0
KASR 142100Z 30006G11KT 43/11 A2982 RMK A01 T04330107  RH  015%=      5-min Rain = 0
KASR 142105Z 27007KT 43/11 A2982 RMK A01 T04340105  RH  015%=      5-min Rain = 0
KASR 142110Z 28005KT 44/11 A2982 RMK A01 T04360105  RH  015%=      5-min Rain = 0
KASR 142115Z 26005KT 44/11 A2981 RMK A01 T04350107  RH  015%=      5-min Rain = 0
KASR 142120Z 21006KT 44/10 A2981 RMK A01 T04350104  RH  014%=      5-min Rain = 0
KASR 142125Z 23008KT 44/11 A2981 RMK A01 T04360106  RH  015%=      5-min Rain = 0
KASR 142130Z 33008KT 44/11 A2981 RMK A01 T04350105  RH  015%=      5-min Rain = 0
KASR 142135Z 35005KT 44/10 A2981 RMK A01 T04350104  RH  014%=      5-min Rain = 0
KASR 142140Z 27007G12KT 44/10 A298 RMK A01 T04380104  RH  014%=      5-min Rain = 0
KASR 142145Z 28005G12KT 44/11 A298 RMK A01 T04400106  RH  014%=      5-min Rain = 0
KASR 142150Z 26001KT 44/10 A298 RMK A01 T04380101  RH  014%=      5-min Rain = 0
KASR 142155Z 26004G10KT 44/10 A2979 RMK A01 T04410103  RH  014%=      5-min Rain = 0
KASR 142200Z 26006KT 44/10 A2979 RMK A01 T04380099  RH  014%=      5-min Rain = 0
KASR 142205Z 24005KT 44/10 A2979 RMK A01 T04380099  RH  014%=      5-min Rain = 0
KASR 142210Z 25004KT 44/10 A2979 RMK A01 T04400101  RH  014%=      5-min Rain = 0
KASR 142215Z 25002G7KT 44/10 A2979 RMK A01 T04380099  RH  014%=      5-min Rain = 0
KASR 142220Z 28004KT 44/10 A2979 RMK A01 T04390102  RH  014%=      5-min Rain = 0
KASR 142225Z 33006KT 43/10 A2979 RMK A01 T04290099  RH  014%=      5-min Rain = 0
KASR 142230Z 32003KT 43/10 A2979 RMK A01 T04320100  RH  014%=      5-min Rain = 0
KASR 142235Z 28004G10KT 44/10 A2979 RMK A01 T04410103  RH  014%=      5-min Rain = 0
KASR 142240Z 29008KT 44/10 A2979 RMK A01 T04390100  RH  014%=      5-min Rain = 0
KASR 142245Z 28006KT 44/10 A2979 RMK A01 T04380099  RH  014%=      5-min Rain = 0
KASR 142250Z 25002KT 44/10 A2979 RMK A01 T04410098  RH  013%=      5-min Rain = 0
KASR 142255Z 28005G11KT 44/10 A2979 RMK A01 T04380097  RH  014%=      5-min Rain = 0
KASR 142300Z 29009KT 43/09 A2979 RMK A01 T04310094  RH  014%=      5-min Rain = 0
KASR 142305Z 30006KT 43/10 A2979 RMK A01 T04280096  RH  014%=      5-min Rain = 0
KASR 142310Z 32006KT 43/09 A2979 RMK A01 T04260094  RH  014%=      5-min Rain = 0
KASR 142315Z 31005KT 43/09 A2979 RMK A01 T04250094  RH  014%=      5-min Rain = 0
KASR 142320Z 30005KT 43/10 A2979 RMK A01 T04250096  RH  014%=      5-min Rain = 0
KASR 142325Z 30003KT 43/10 A2979 RMK A01 T04260095  RH  014%=      5-min Rain = 0
KASR 142330Z 31003KT 43/09 A2979 RMK A01 T04250094  RH  014%=      5-min Rain = 0
KASR 142335Z 35004KT 42/10 A2979 RMK A01 T04220096  RH  015%=      5-min Rain = 0
KASR 142340Z 35001KT 42/09 A2979 RMK A01 T04220091  RH  014%=      5-min Rain = 0
KASR 142345Z 03001KT 42/09 A2979 RMK A01 T04220092  RH  014%=      5-min Rain = 0
KASR 142350Z 36004KT 42/10 A2979 RMK A01 T04180103  RH  016%=      5-min Rain = 0
KASR 142355Z 00003KT 42/10 A2979 RMK A01 T04150097  RH  015%=      5-min Rain = 0
KASR 150000Z 33004KT 41/10 A298 RMK A01 T04140101  RH  016%=      5-min Rain = 0
KASR 150005Z 29007G13KT 41/10 A298 RMK A01 T04120097  RH  016%=      5-min Rain = 0
KASR 150010Z 29012G18KT 41/11 A2982 RMK A01 T04060110  RH  017%=      5-min Rain = 0
KASR 150015Z 32020G25KT 39/11 A2982 RMK A01 T03940107  RH  018%=      5-min Rain = 0
KASR 150020Z 32017G23KT 39/10 A2982 RMK A01 T03880103  RH  018%=      5-min Rain = 0
KASR 150025Z 31012KT 39/10 A2982 RMK A01 T03860102  RH  019%=      5-min Rain = 0
KASR 150030Z 32013KT 38/11 A2983 RMK A01 T03840105  RH  019%=      5-min Rain = 0
KASR 150035Z 31013KT 37/13 A2983 RMK A01 T03690134  RH  025%=      5-min Rain = 0
KASR 150040Z 32015G22KT 35/15 A2984 RMK A01 T03460149  RH  031%=      5-min Rain = 0
KASR 150045Z 33021G26KT 33/15 A2984 RMK A01 T03280151  RH  035%=      5-min Rain = 0.01
KASR 150050Z 32020G25KT 31/16 A2985 RMK A01 T03140156  RH  040%=      5-min Rain = 0.02
KASR 150055Z 33022G30KT 31/16 A2986 RMK A01 T03110157  RH  040%=      5-min Rain = 0.01
KASR 150100Z 34021G27KT 30/16 A2987 RMK A01 T02970162  RH  045%=      5-min Rain = 0.01
KASR 150105Z 35016G23KT 29/17 A2988 RMK A01 T02920165  RH  047%=      5-min Rain = 0
KASR 150110Z 35015G21KT 30/16 A299 RMK A01 T02990158  RH  043%=      5-min Rain = 0
KASR 150115Z 01010G15KT 31/15 A2991 RMK A01 T03090148  RH  039%=      5-min Rain = 0
KASR 150120Z 03009G14KT 34/13 A2992 RMK A01 T03350130  RH  030%=      5-min Rain = 0
KASR 150125Z 02009G14KT 35/13 A2992 RMK A01 T03450127  RH  027%=      5-min Rain = 0
KASR 150130Z 02014G19KT 34/13 A2993 RMK A01 T03430130  RH  028%=      5-min Rain = 0
KASR 150135Z 04009G15KT 35/12 A2993 RMK A01 T03460124  RH  027%=      5-min Rain = 0
KASR 150140Z 03008KT 35/12 A2993 RMK A01 T03510122  RH  026%=      5-min Rain = 0
KASR 150145Z 03007KT 34/13 A2994 RMK A01 T03420134  RH  029%=      5-min Rain = 0
KASR 150150Z 07006KT 34/13 A2995 RMK A01 T03370134  RH  030%=      5-min Rain = 0
KASR 150155Z 01007G21KT 34/13 A2996 RMK A01 T03390129  RH  029%=      5-min Rain = 0.01
KASR 150200Z 14008G13KT 33/14 A2995 RMK A01 T03330136  RH  031%=      5-min Rain = 0
KASR 150205Z 08006G13KT 34/11 A2994 RMK A01 T03420114  RH  026%=      5-min Rain = 0
KASR 150210Z 12002KT 36/11 A2993 RMK A01 T03610105  RH  022%=      5-min Rain = 0
KASR 150215Z 16004KT 35/13 A2993 RMK A01 T03500133  RH  028%=      5-min Rain = 0
KASR 150220Z 11005KT 34/14 A2994 RMK A01 T03370136  RH  030%=      5-min Rain = 0
KASR 150225Z 13003KT 34/13 A2994 RMK A01 T03350134  RH  030%=      5-min Rain = 0
KASR 150230Z 13003KT 33/14 A2995 RMK A01 T03330138  RH  032%=      5-min Rain = 0
KASR 150235Z 11003KT 33/14 A2995 RMK A01 T03340136  RH  031%=      5-min Rain = 0
KASR 150240Z 02003KT 33/14 A2995 RMK A01 T03340138  RH  031%=      5-min Rain = 0
KASR 150245Z 34003KT 34/14 A2994 RMK A01 T03360139  RH  031%=      5-min Rain = 0
KASR 150250Z 28006KT 33/16 A2993 RMK A01 T03280161  RH  038%=      5-min Rain = 0
KASR 150255Z 26007KT 32/17 A2993 RMK A01 T03150168  RH  042%=      5-min Rain = 0
KASR 150300Z 24010KT 32/16 A2992 RMK A01 T03170158  RH  039%=      5-min Rain = 0
KASR 150305Z 24012KT 32/15 A2991 RMK A01 T03210149  RH  036%=      5-min Rain = 0
KASR 150310Z 26012KT 32/15 A2991 RMK A01 T03210149  RH  036%=      5-min Rain = 0
KASR 150315Z 27010KT 32/15 A2991 RMK A01 T03200149  RH  036%=      5-min Rain = 0
KASR 150320Z 27011KT 33/14 A2991 RMK A01 T03290140  RH  033%=      5-min Rain = 0
KASR 150325Z 26006KT 33/14 A2991 RMK A01 T03310143  RH  033%=      5-min Rain = 0
KASR 150330Z 26008KT 33/14 A2991 RMK A01 T03300139  RH  032%=      5-min Rain = 0
KASR 150335Z 27010KT 34/14 A2991 RMK A01 T03370138  RH  031%=      5-min Rain = 0
KASR 150340Z 24007G14KT 34/14 A2991 RMK A01 T03360135  RH  030%=      5-min Rain = 0
KASR 150345Z 24017G23KT 35/12 A2991 RMK A01 T03460123  RH  026%=      5-min Rain = 0
KASR 150350Z 23018G25KT 35/12 A299 RMK A01 T03480121  RH  026%=      5-min Rain = 0
KASR 150355Z 21018G25KT 35/11 A299 RMK A01 T03530114  RH  024%=      5-min Rain = 0
KASR 150400Z 22017KT 36/11 A2989 RMK A01 T03580111  RH  023%=      5-min Rain = 0
KASR 150405Z 21016G22KT 36/11 A2989 RMK A01 T03580111  RH  023%=      5-min Rain = 0
KASR 150410Z 20016G21KT 36/11 A2988 RMK A01 T03610108  RH  022%=      5-min Rain = 0
KASR 150415Z 20015KT 36/11 A2988 RMK A01 T03620108  RH  022%=      5-min Rain = 0
KASR 150420Z 20014G19KT 36/11 A2988 RMK A01 T03590111  RH  023%=      5-min Rain = 0
KASR 150425Z 20015KT 36/11 A2988 RMK A01 T03640106  RH  021%=      5-min Rain = 0
KASR 150430Z 21016G27KT 37/10 A2987 RMK A01 T03690103  RH  021%=      5-min Rain = 0
KASR 150435Z 27021G37KT 37/11 A2987 RMK A01 T03710109  RH  021%=      5-min Rain = 0
KASR 150440Z 22012G23KT 37/10 A2988 RMK A01 T03710104  RH  020%=      5-min Rain = 0
KASR 150445Z 08009G19KT 37/11 A2987 RMK A01 T03720110  RH  021%=      5-min Rain = 0.01
KASR 150450Z 07015G27KT 37/10 A2986 RMK A01 T03700098  RH  020%=      5-min Rain = 0
KASR 150455Z 13007KT 38/10 A2987 RMK A01 T03770095  RH  018%=      5-min Rain = 0

Page generated in 0.0093 seconds.